Thursday, May 24, 2018, 4:28 AM GMT
Back to Local

CWKG, Kejimkujik 1, N. S.

Location: , , Canada Lat: 44.433
Local Time: 4:28 AM GMT ( 4:28 GMT) Lon: -65.2
Time Zone: GMT Elev: 416 ft

Show me the last for .
Show Coded

Time T Td Feel RH Dir Speed Gust Alt SLP Vis Weather Sky Remarks
2018-05-24 04:00 41 36 39 81 10° 3 - - 29.96 0 None
2018-05-24 03:00 42 37 40 81 20° 5 - - 29.96 0 None
2018-05-24 02:00 42 38 38 85 10° 6 - - 29.97 0 None
2018-05-24 01:00 44 39 40 80 20° 7 - - 29.94 0 None
2018-05-24 00:00 47 40 44 77 360° 6 - - 29.91 0 Peak wind: 20 mph (18 kts) from 350° at 09 min
2018-05-23 23:00 51 42 - 72 340° 8 22 - 29.86 0 Peak wind: 21 mph (19 kts) from 320° at 56 min
2018-05-23 22:00 57 44 - 61 320° 5 - - 29.82 0 None
2018-05-23 21:00 58 47 - 65 350° 6 - - 29.81 0 Peak wind: 24 mph (21 kts) from 0° at 28 min
2018-05-23 20:00 67 46 - 47 310° 7 18 - 29.76 0 None
2018-05-23 19:00 68 47 - 46 300° 7 - - 29.75 0 None
2018-05-23 18:00 68 48 - 48 260° 6 - - 29.75 0 None
2018-05-23 17:00 65 46 - 50 220° 3 - - 29.76 0 None
2018-05-23 16:00 65 45 - 47 240° 7 - - 29.77 0 None
2018-05-23 15:00 62 43 - 50 260° 3 - - 29.80 0 None
2018-05-23 14:00 58 44 - 59 260° 2 - - 29.81 0 None
2018-05-23 13:00 55 44 - 66 320° 1 - - 29.83 0 None
2018-05-23 12:00 54 43 - 65 290° 1 - - 29.84 0 None
2018-05-23 11:00 52 47 - 81 280° 2 - - 29.87 0 None
2018-05-23 10:00 51 46 - 83 240° 2 - - 29.88 0 None
2018-05-23 09:00 51 46 - 85 190° 3 - - 29.89 0 None
2018-05-23 08:00 51 46 - 83 170° 2 - - 29.91 0 None
2018-05-23 07:00 51 47 - 85 180° 3 - - 29.93 0 None
2018-05-23 06:00 52 48 - 86 200° 3 - - 29.95 0 None
2018-05-23 05:00 53 47 - 81 230° 7 - - 29.98 0 None

Support USWX by starting your Amazon purchase here.